Time;durP1;ratioP1;P1;durP2;ratioP2;P2;SDS_P1;SDS_P2;PMS_P1;PMS_P2;Temp;Humidity;BMP_temperature;BMP_pressure;BME280_temperature;BME280_humidity;BME280_pressure;Samples;Min_cycle;Max_cycle;Signal;HPM_P1;HPM_P2
2023/05/20 00:08:38;;;;;;;2.92;2.10;;;;;;;24.41;35.87;102229.94;20914632;28;20106;-66
2023/05/20 00:18:39;;;;;;;2.38;1.58;;;;;;;24.43;35.58;102236.13;20914573;28;20045;-65
2023/05/20 00:28:41;;;;;;;3.90;2.05;;;;;;;24.47;35.79;102262.44;20913440;28;20185;-65
2023/05/20 00:38:45;;;;;;;1.90;1.65;;;;;;;24.44;35.95;102252.63;20912799;28;20118;-64
2023/05/20 00:48:47;;;;;;;2.05;1.60;;;;;;;24.45;35.73;102268.28;20912070;28;20538;-64
2023/05/20 00:58:54;;;;;;;2.05;1.60;;;;;;;24.45;35.80;102265.50;20911031;28;20045;-65
2023/05/20 01:08:58;;;;;;;4.00;2.13;;;;;;;24.13;36.02;102212.44;20911249;28;20044;-66
2023/05/20 01:19:02;;;;;;;2.05;1.73;;;;;;;24.47;35.91;102284.81;20910115;28;20044;-65
2023/05/20 01:29:04;;;;;;;4.10;1.40;;;;;;;24.36;35.88;102275.50;20910109;28;20369;-65
2023/05/20 01:39:07;;;;;;;1.63;1.42;;;;;;;24.45;35.75;102296.28;20909070;28;20053;-64
2023/05/20 01:49:08;;;;;;;2.03;1.63;;;;;;;24.44;35.94;102290.97;20908973;28;20036;-66
2023/05/20 01:59:12;;;;;;;2.10;1.50;;;;;;;24.44;36.24;102296.56;20908761;28;20051;-66
2023/05/20 02:09:14;;;;;;;1.73;1.60;;;;;;;24.19;36.09;102260.84;20922584;28;20045;-65
2023/05/20 02:19:22;;;;;;;2.25;1.60;;;;;;;24.27;35.95;102263.97;20923843;28;20075;-66
2023/05/20 02:29:23;;;;;;;;;;;;;;;24.41;36.39;102280.28;20923755;28;20416;-65
2023/05/20 02:39:24;;;;;;;2.40;1.42;;;;;;;24.36;36.20;102261.50;20922425;28;20334;-67
2023/05/20 02:49:26;;;;;;;2.22;1.63;;;;;;;24.40;36.16;102259.03;20960845;28;20098;-65
2023/05/20 02:59:27;;;;;;;1.85;1.48;;;;;;;24.38;36.50;102241.69;21004850;28;20044;-65
2023/05/20 03:09:28;;;;;;;2.03;1.48;;;;;;;24.36;36.34;102233.53;21002978;28;20067;-64
2023/05/20 03:19:30;;;;;;;2.22;1.58;;;;;;;24.19;36.43;102189.00;21001367;28;20049;-64
2023/05/20 03:29:32;;;;;;;1.98;1.40;;;;;;;24.35;36.57;102204.72;21001481;28;20095;-65
2023/05/20 03:39:33;;;;;;;2.97;1.65;;;;;;;24.36;36.53;102197.16;21000498;28;20040;-65
2023/05/20 03:49:39;;;;;;;2.03;1.42;;;;;;;24.33;36.72;102190.16;20999715;28;20045;-64
2023/05/20 03:59:41;;;;;;;2.15;1.58;;;;;;;24.25;36.94;102165.50;20998448;28;20036;-65
2023/05/20 04:09:48;;;;;;;3.30;1.88;;;;;;;24.19;36.69;102171.34;20997708;28;20090;-64
2023/05/20 04:19:50;;;;;;;2.10;1.67;;;;;;;24.30;36.61;102171.13;20996852;28;20036;-65
2023/05/20 04:29:53;;;;;;;2.22;1.50;;;;;;;24.04;37.00;102130.19;20995569;28;20040;-65
2023/05/20 04:39:55;;;;;;;1.95;1.70;;;;;;;24.32;37.02;102159.66;20995595;28;20040;-65
2023/05/20 04:49:56;;;;;;;3.38;1.70;;;;;;;24.30;37.03;102129.16;20993728;28;20070;-65
2023/05/20 04:59:58;;;;;;;2.80;1.60;;;;;;;24.28;36.90;102105.38;20993919;28;20043;-65
2023/05/20 05:10:02;;;;;;;3.13;2.35;;;;;;;24.28;36.91;102105.38;20993566;28;20549;-65
2023/05/20 05:20:04;;;;;;;7.40;1.90;;;;;;;24.24;36.95;102091.13;20992327;28;20044;-65
2023/05/20 05:30:09;;;;;;;2.47;1.67;;;;;;;24.21;37.49;102080.47;20992813;28;20041;-65
2023/05/20 05:40:11;;;;;;;1.88;1.58;;;;;;;24.14;37.34;102054.72;21000371;28;20044;-65
2023/05/20 05:50:15;;;;;;;3.97;1.70;;;;;;;24.19;37.33;102048.28;21009187;28;20045;-65
2023/05/20 06:00:19;;;;;;;2.00;1.52;;;;;;;24.17;37.55;102026.19;21008255;28;20114;-65
2023/05/20 06:10:21;;;;;;;4.10;1.98;;;;;;;24.09;37.34;101993.19;21007004;28;20094;-65
2023/05/20 06:20:22;;;;;;;3.08;1.88;;;;;;;24.14;37.56;101990.38;21006686;28;20040;-64
2023/05/20 06:30:23;;;;;;;2.08;1.70;;;;;;;24.12;37.86;101981.47;21005751;28;20110;-66
2023/05/20 06:40:26;;;;;;;3.97;1.67;;;;;;;24.12;37.70;101975.84;21005182;28;20063;-65
2023/05/20 06:50:32;;;;;;;3.72;1.88;;;;;;;24.04;37.77;101945.66;21003827;28;20037;-65
2023/05/20 07:00:34;;;;;;;3.40;1.92;;;;;;;24.06;38.11;101943.44;21003594;28;20037;-65
2023/05/20 07:10:35;;;;;;;3.22;1.50;;;;;;;24.10;37.83;101933.38;21003317;28;20025;-65
2023/05/20 07:20:37;;;;;;;2.55;1.52;;;;;;;24.10;37.94;101933.38;21002265;28;20060;-65
2023/05/20 07:30:38;;;;;;;2.88;1.80;;;;;;;24.06;38.11;101921.91;21001500;28;20056;-65
2023/05/20 07:40:42;;;;;;;2.28;1.70;;;;;;;24.05;38.54;101908.19;21000874;28;20051;-65
2023/05/20 07:50:44;;;;;;;2.42;1.70;;;;;;;24.05;38.33;101905.38;20999963;28;20063;-65
2023/05/20 08:00:45;;;;;;;4.18;2.50;;;;;;;23.97;38.51;101883.59;20997903;28;20040;-63
2023/05/20 08:10:50;;;;;;;2.72;1.90;;;;;;;24.02;38.38;101891.97;20997594;28;20438;-66
2023/05/20 08:20:52;;;;;;;2.45;1.50;;;;;;;23.77;38.76;101848.91;20997564;28;20045;-66
2023/05/20 08:30:53;;;;;;;2.45;1.83;;;;;;;24.01;38.68;101873.53;20996343;28;20109;-65
2023/05/20 08:40:56;;;;;;;2.42;1.42;;;;;;;23.98;38.56;101876.88;20995977;28;20048;-66
2023/05/20 08:50:58;;;;;;;4.18;1.70;;;;;;;23.97;38.43;101855.63;20995367;28;20075;-65
2023/05/20 09:01:02;;;;;;;3.35;1.90;;;;;;;24.00;38.32;101849.47;20994914;28;20502;-65
2023/05/20 09:11:03;;;;;;;4.15;1.60;;;;;;;23.99;38.87;101848.63;20993724;28;20033;-65
2023/05/20 09:21:05;;;;;;;2.45;1.63;;;;;;;23.89;38.99;101819.84;20993434;28;20442;-65
2023/05/20 09:31:07;;;;;;;2.03;1.65;;;;;;;23.97;38.83;101850.88;20993033;28;20048;-65
2023/05/20 09:41:14;;;;;;;2.47;1.65;;;;;;;23.96;38.60;101826.84;20992922;28;20037;-65
2023/05/20 09:51:16;;;;;;;2.45;1.80;;;;;;;23.81;38.52;101816.47;20992341;28;20492;-65
2023/05/20 10:01:17;;;;;;;2.15;1.80;;;;;;;23.96;38.79;101821.25;20992106;28;20106;-65
2023/05/20 10:11:43;;;;;;;2.35;1.65;;;;;;;23.98;38.50;101806.97;20991553;28;20071;-65
2023/05/20 10:21:55;;;;;;;3.22;1.65;;;;;;;24.00;38.80;101788.78;20991460;28;20040;-66
2023/05/20 10:31:59;;;;;;;2.70;2.10;;;;;;;24.02;38.47;101792.16;21005845;28;20093;-66
2023/05/20 10:42:07;;;;;;;2.95;1.95;;;;;;;23.95;39.03;101797.19;21005219;28;20036;-66
2023/05/20 10:52:18;;;;;;;2.95;1.73;;;;;;;23.91;39.09;101786.84;21004545;28;20040;-65
2023/05/20 11:02:25;;;;;;;2.15;1.45;;;;;;;23.70;38.65;101747.75;21003538;28;20041;-65
2023/05/20 11:12:27;;;;;;;2.83;1.70;;;;;;;23.88;38.88;101785.47;21002723;28;20090;-65
2023/05/20 11:22:28;;;;;;;1.95;1.60;;;;;;;23.95;39.20;101787.97;21002272;28;20037;-65
2023/05/20 11:32:29;;;;;;;2.80;1.50;;;;;;;23.94;39.01;101784.34;21001869;28;20037;-65
2023/05/20 11:42:31;;;;;;;4.22;2.03;;;;;;;23.55;38.95;101736.56;21000532;28;20045;-64
2023/05/20 11:52:33;;;;;;;1.88;1.52;;;;;;;23.90;39.01;101776.78;20999286;28;20432;-64
2023/05/20 12:02:35;;;;;;;2.13;1.75;;;;;;;23.95;39.31;101785.16;20999448;28;20427;-65
2023/05/20 12:12:43;;;;;;;2.30;1.58;;;;;;;23.70;39.27;101744.13;20998244;28;20047;-66
2023/05/20 12:22:48;;;;;;;2.42;1.50;;;;;;;23.91;39.25;101770.06;20997327;28;20055;-66
2023/05/20 12:32:52;;;;;;;2.13;1.40;;;;;;;23.91;39.57;101767.28;20996224;28;20048;-65
2023/05/20 12:42:54;;;;;;;1.98;1.58;;;;;;;23.88;39.50;101774.28;20995564;28;20040;-65
2023/05/20 12:52:55;;;;;;;1.63;1.27;;;;;;;23.83;39.56;101755.56;20994511;28;20094;-65
2023/05/20 13:02:56;;;;;;;1.90;1.65;;;;;;;23.84;39.67;101740.47;20994465;28;20033;-66
2023/05/20 13:12:58;;;;;;;1.73;1.58;;;;;;;23.87;39.45;101736.28;20993356;28;20098;-66
2023/05/20 13:23:02;;;;;;;2.75;1.30;;;;;;;23.85;39.30;101727.31;20992724;28;20097;-66
2023/05/20 13:33:03;;;;;;;1.50;1.40;;;;;;;23.87;39.94;101701.88;20992597;28;20052;-66
2023/05/20 13:43:05;;;;;;;2.45;1.30;;;;;;;23.84;39.67;101701.34;20914818;28;20036;-66
2023/05/20 13:53:11;;;;;;;2.85;1.70;;;;;;;23.72;39.67;101672.84;20908841;28;20512;-66
2023/05/20 14:03:15;;;;;;;1.83;1.50;;;;;;;23.84;39.85;101687.38;20918674;28;20049;-66
2023/05/20 14:13:20;;;;;;;2.17;1.58;;;;;;;23.84;39.84;101656.63;20923500;28;20045;-66
2023/05/20 14:23:21;;;;;;;1.90;1.45;;;;;;;23.73;39.76;101632.63;20923860;28;20037;-65
2023/05/20 14:33:22;;;;;;;1.60;1.50;;;;;;;23.56;39.42;101595.75;20923042;28;20446;-66
2023/05/20 14:43:27;;;;;;;1.67;1.58;;;;;;;23.77;39.60;101610.50;20922393;28;20151;-66
2023/05/20 14:53:28;;;;;;;2.53;1.58;;;;;;;23.90;39.82;101609.06;20921840;28;20052;-66
2023/05/20 15:03:30;;;;;;;1.77;1.60;;;;;;;23.93;39.91;101611.31;20921044;28;20045;-66
2023/05/20 15:13:31;;;;;;;1.63;1.48;;;;;;;23.88;39.84;101602.94;20918861;28;20558;-65
2023/05/20 15:23:33;;;;;;;1.58;1.38;;;;;;;23.94;39.78;101594.25;20919162;28;20099;-65
2023/05/20 15:33:37;;;;;;;1.95;1.52;;;;;;;23.91;40.29;101572.44;20918767;28;20045;-65
2023/05/20 15:43:38;;;;;;;1.63;1.52;;;;;;;23.96;40.13;101558.47;20917766;28;20033;-65
2023/05/20 15:53:39;;;;;;;1.77;1.27;;;;;;;23.73;40.32;101503.22;20916996;28;20484;-66
2023/05/20 16:03:45;;;;;;;1.30;1.20;;;;;;;24.02;40.78;101528.53;20916482;28;20395;-66
2023/05/20 16:13:46;;;;;;;1.70;1.33;;;;;;;24.07;41.84;101487.38;20915252;28;20063;-66
2023/05/20 16:23:47;;;;;;;1.88;1.50;;;;;;;24.07;41.54;101461.41;20913727;28;20052;-66
2023/05/20 16:33:49;;;;;;;1.73;1.20;;;;;;;24.12;42.03;101444.59;20913542;28;20041;-65
2023/05/20 16:43:50;;;;;;;1.70;1.35;;;;;;;24.13;42.22;101429.47;20912866;28;20103;-66
2023/05/20 16:53:58;;;;;;;1.50;1.40;;;;;;;24.12;41.90;101422.22;20912087;28;20037;-66
2023/05/20 17:03:59;;;;;;;1.60;1.23;;;;;;;24.10;41.75;101407.69;20911593;28;20400;-66
2023/05/20 17:14:00;;;;;;;1.50;1.27;;;;;;;24.17;41.92;101383.03;20910814;28;20079;-66
2023/05/20 17:24:05;;;;;;;2.22;1.20;;;;;;;24.16;41.87;101381.34;20910447;28;20037;-66
2023/05/20 17:34:06;;;;;;;2.47;1.30;;;;;;;24.16;41.60;101367.38;20909895;28;20131;-65
2023/05/20 17:44:10;;;;;;;1.65;1.33;;;;;;;23.80;41.20;101303.38;20909828;28;20495;-65
2023/05/20 17:54:14;;;;;;;1.83;1.13;;;;;;;24.12;41.37;101343.09;20909382;28;20550;-65
2023/05/20 18:04:16;;;;;;;1.23;1.08;;;;;;;24.13;41.12;101331.59;20909108;28;20029;-65
2023/05/20 18:14:21;;;;;;;1.60;1.02;;;;;;;24.12;40.69;101293.59;20908236;28;20048;-65
2023/05/20 18:24:22;;;;;;;1.30;1.10;;;;;;;24.12;41.01;101295.56;20908166;28;20076;-65
2023/05/20 18:34:24;;;;;;;1.23;1.10;;;;;;;24.11;40.68;101274.34;20907264;28;20048;-65
2023/05/20 18:44:25;;;;;;;1.40;1.30;;;;;;;24.12;40.56;101271.22;20909631;28;20033;-65
2023/05/20 18:54:27;;;;;;;1.30;1.20;;;;;;;23.74;40.45;101215.13;20921410;28;20052;-65
2023/05/20 19:04:28;;;;;;;1.20;1.10;;;;;;;23.93;40.57;101232.00;20920350;28;20079;-65
2023/05/20 19:14:30;;;;;;;1.10;1.00;;;;;;;23.96;40.52;101227.75;20920122;28;20041;-65
2023/05/20 19:24:34;;;;;;;1.30;1.20;;;;;;;24.04;40.57;101235.53;20919328;28;20392;-65
2023/05/20 19:34:35;;;;;;;1.42;1.20;;;;;;;24.04;40.25;101221.53;20918400;28;20557;-65
2023/05/20 19:44:37;;;;;;;1.50;1.40;;;;;;;23.97;40.50;101202.34;20918284;28;20434;-65
2023/05/20 19:54:40;;;;;;;1.55;1.38;;;;;;;24.02;40.22;101187.47;20916083;28;20041;-65
2023/05/20 20:04:41;;;;;;;1.58;1.45;;;;;;;24.03;40.04;101172.34;20916347;28;20049;-65
2023/05/20 20:14:46;;;;;;;2.17;1.48;;;;;;;23.98;39.99;101153.69;20916084;28;20036;-65
2023/05/20 20:24:48;;;;;;;1.52;1.33;;;;;;;24.10;40.10;101172.84;20914504;28;20484;-65
2023/05/20 20:34:51;;;;;;;2.00;1.50;;;;;;;24.11;39.89;101173.69;20913793;28;20103;-65
2023/05/20 20:44:52;;;;;;;1.88;1.60;;;;;;;24.11;40.21;101168.09;20912903;28;20049;-65
2023/05/20 20:54:55;;;;;;;1.70;1.38;;;;;;;24.11;40.18;101151.31;20912108;28;20045;-67
2023/05/20 21:04:57;;;;;;;1.38;1.20;;;;;;;24.15;39.94;101144.84;20911916;28;20040;-65
2023/05/20 21:15:00;;;;;;;1.65;1.20;;;;;;;24.04;39.91;101118.09;20910643;28;20048;-65
2023/05/20 21:25:01;;;;;;;1.80;1.35;;;;;;;24.13;40.24;101118.28;20910016;28;20038;-65
2023/05/20 21:35:03;;;;;;;2.90;1.60;;;;;;;24.13;40.10;101116.31;20910092;28;20086;-65
2023/05/20 21:45:05;;;;;;;1.63;1.52;;;;;;;24.12;40.11;101117.47;20909561;28;20095;-65
2023/05/20 21:55:08;;;;;;;1.60;1.50;;;;;;;24.14;39.80;101106.78;20909262;28;20045;-65
2023/05/20 22:05:12;;;;;;;1.52;1.42;;;;;;;23.96;39.74;101069.31;20908887;28;20034;-65
2023/05/20 22:15:17;;;;;;;1.90;1.80;;;;;;;24.11;39.96;101073.88;20908156;28;20434;-65
2023/05/20 22:25:18;;;;;;;1.83;1.58;;;;;;;24.13;40.00;101081.94;20920126;28;20060;-65
2023/05/20 22:35:21;;;;;;;1.50;1.35;;;;;;;24.08;40.46;101063.28;20923114;28;20071;-65
2023/05/20 22:45:22;;;;;;;1.67;1.58;;;;;;;24.08;40.18;101064.09;20922070;28;20083;-65
2023/05/20 22:55:23;;;;;;;1.40;1.30;;;;;;;24.14;40.25;101078.00;20922627;28;20044;-65
2023/05/20 23:05:25;;;;;;;1.83;1.67;;;;;;;24.14;40.12;101067.66;20923886;28;20041;-65
2023/05/20 23:15:26;;;;;;;1.67;1.58;;;;;;;24.14;39.79;101067.66;20919388;28;20041;-65
2023/05/20 23:25:28;;;;;;;1.67;1.58;;;;;;;24.15;40.18;101062.91;20919343;28;20491;-65
2023/05/20 23:35:29;;;;;;;1.60;1.50;;;;;;;24.17;40.01;101074.63;20918196;28;20041;-65
2023/05/20 23:45:30;;;;;;;1.73;1.63;;;;;;;24.29;40.07;101091.81;20917913;28;20036;-65
2023/05/20 23:55:32;;;;;;;1.55;1.40;;;;;;;24.28;39.67;101090.13;20917271;28;20041;-65
